createdAt,value
2024-03-08T00:01:35.979Z,101079.09
2024-03-08T00:04:08.432Z,101073.40
2024-03-08T00:06:41.101Z,101074.09
2024-03-08T00:09:12.509Z,101075.30
2024-03-08T00:11:43.899Z,101073.48
2024-03-08T00:14:15.431Z,101073.02
2024-03-08T00:16:47.183Z,101069.81
2024-03-08T00:19:19.079Z,101066.94
2024-03-08T00:21:50.602Z,101069.00
2024-03-08T00:24:25.613Z,101067.36
2024-03-08T00:26:56.929Z,101060.55
2024-03-08T00:29:28.924Z,101061.69
2024-03-08T00:32:00.436Z,101060.77
2024-03-08T00:34:33.052Z,101057.70
2024-03-08T00:37:04.369Z,101056.38
2024-03-08T00:39:35.811Z,101054.26
2024-03-08T00:42:07.566Z,101054.23
2024-03-08T00:44:39.166Z,101055.50
2024-03-08T00:47:10.885Z,101054.64
2024-03-08T00:49:44.334Z,101053.80
2024-03-08T00:52:16.840Z,101054.92
2024-03-08T00:54:48.435Z,101050.61
2024-03-08T00:57:20.333Z,101047.89
2024-03-08T00:59:52.095Z,101046.14
2024-03-08T01:02:24.674Z,101044.25
2024-03-08T01:04:56.322Z,101038.96
2024-03-08T01:07:27.719Z,101046.89
2024-03-08T01:09:59.157Z,101048.33
2024-03-08T01:12:31.278Z,101045.83
2024-03-08T01:15:03.428Z,101045.67
2024-03-08T01:17:34.981Z,101036.84
2024-03-08T01:20:07.419Z,101037.17
2024-03-08T01:22:38.933Z,101036.27
2024-03-08T01:25:11.650Z,101038.33
2024-03-08T01:27:43.128Z,101037.70
2024-03-08T01:30:18.854Z,101036.09
2024-03-08T01:32:50.334Z,101036.11
2024-03-08T01:35:23.813Z,101036.70
2024-03-08T01:37:55.426Z,101037.58
2024-03-08T01:40:26.790Z,101033.24
2024-03-08T01:42:58.231Z,101034.03
2024-03-08T01:45:30.737Z,101034.67
2024-03-08T01:48:02.393Z,101033.83
2024-03-08T01:50:33.930Z,101033.97
2024-03-08T01:53:06.373Z,101038.50
2024-03-08T01:55:39.203Z,101035.29
2024-03-08T01:58:12.283Z,101039.15
2024-03-08T02:00:46.464Z,101036.04
2024-03-08T02:03:18.204Z,101035.10
2024-03-08T02:05:51.460Z,101034.63
2024-03-08T02:08:24.183Z,101030.33
2024-03-08T02:10:55.876Z,101027.88
2024-03-08T02:13:28.810Z,101029.07
2024-03-08T02:16:01.833Z,101030.94
2024-03-08T02:18:36.304Z,101030.52
2024-03-08T02:21:10.618Z,101029.83
2024-03-08T02:23:42.448Z,101028.48
2024-03-08T02:26:14.253Z,101022.87
2024-03-08T02:28:47.243Z,101024.37
2024-03-08T02:31:19.044Z,101021.78
2024-03-08T02:33:50.626Z,101028.96
2024-03-08T02:36:23.103Z,101024.09
2024-03-08T02:38:57.042Z,101022.91
2024-03-08T02:41:29.863Z,101027.02
2024-03-08T02:44:01.309Z,101026.21
2024-03-08T02:46:32.814Z,101029.50
2024-03-08T02:49:04.289Z,101028.75
2024-03-08T02:51:36.786Z,101027.68
2024-03-08T02:54:09.631Z,101024.10
2024-03-08T02:56:41.188Z,101020.59
2024-03-08T02:59:12.497Z,101021.86
2024-03-08T03:01:44.457Z,101018.63
2024-03-08T03:04:16.258Z,101020.11
2024-03-08T03:06:47.539Z,101022.39
2024-03-08T03:09:24.942Z,101021.50
2024-03-08T03:11:56.895Z,101020.91
2024-03-08T03:14:28.661Z,101018.70
2024-03-08T03:17:00.004Z,101018.92
2024-03-08T03:19:31.624Z,101018.52
2024-03-08T03:22:04.616Z,101016.21
2024-03-08T03:24:39.664Z,101014.23
2024-03-08T03:27:13.270Z,101012.64
2024-03-08T03:29:47.206Z,101012.52
2024-03-08T03:32:20.162Z,101009.55
2024-03-08T03:34:54.172Z,101010.10
2024-03-08T03:37:25.808Z,101008.17
2024-03-08T03:40:04.620Z,101007.54
2024-03-08T03:42:35.867Z,101007.84
2024-03-08T03:45:10.828Z,101004.42
2024-03-08T03:47:42.205Z,101005.02
2024-03-08T03:50:14.285Z,101004.45
2024-03-08T03:52:45.802Z,101007.59
2024-03-08T03:55:17.696Z,101009.91
2024-03-08T03:57:49.785Z,101004.50
2024-03-08T04:00:21.786Z,101005.27
2024-03-08T04:03:11.369Z,101003.54
2024-03-08T04:05:51.563Z,101007.80
2024-03-08T04:08:29.075Z,101003.14
2024-03-08T04:11:00.914Z,101001.39
2024-03-08T04:13:32.716Z,101001.73
2024-03-08T04:16:04.139Z,100997.23
2024-03-08T04:18:37.176Z,100995.47
2024-03-08T04:21:10.368Z,100995.88
2024-03-08T04:23:41.810Z,100996.49
2024-03-08T04:26:16.712Z,100992.29
2024-03-08T04:28:49.631Z,100987.31
2024-03-08T04:31:21.112Z,100988.52
2024-03-08T04:33:52.864Z,100986.66
2024-03-08T04:36:26.294Z,100981.55
2024-03-08T04:38:58.071Z,100982.73
2024-03-08T04:41:31.620Z,100980.43
2024-03-08T04:44:03.250Z,100983.79
2024-03-08T04:46:36.737Z,100985.92
2024-03-08T04:49:08.612Z,100980.79
2024-03-08T04:51:40.107Z,100980.40
2024-03-08T04:54:11.821Z,100985.17
2024-03-08T04:56:44.120Z,100984.76
2024-03-08T04:59:15.857Z,100984.91
2024-03-08T05:01:48.741Z,100992.52
2024-03-08T05:04:20.708Z,100992.98
2024-03-08T05:06:52.536Z,100989.91
2024-03-08T05:09:25.086Z,100988.72
2024-03-08T05:11:56.482Z,100987.58
2024-03-08T05:14:28.093Z,100987.81
2024-03-08T05:16:59.567Z,100984.60
2024-03-08T05:19:34.780Z,100993.10
2024-03-08T05:22:06.938Z,100988.50
2024-03-08T05:24:39.653Z,100989.67
2024-03-08T05:27:11.058Z,100988.74
2024-03-08T05:29:42.599Z,100986.40
2024-03-08T05:32:14.122Z,100986.05
2024-03-08T05:34:45.952Z,100987.37
2024-03-08T05:37:17.582Z,100987.50
2024-03-08T05:39:49.836Z,100986.63
2024-03-08T05:42:22.084Z,100983.48
2024-03-08T05:44:53.540Z,100977.77
2024-03-08T05:47:26.587Z,100976.44
2024-03-08T05:49:59.950Z,100972.27
2024-03-08T05:52:31.668Z,100965.91
2024-03-08T05:55:04.401Z,100970.42
2024-03-08T05:57:35.709Z,100967.30
2024-03-08T06:00:12.553Z,100969.10
2024-03-08T06:02:44.520Z,100965.65
2024-03-08T06:05:16.058Z,100970.48
2024-03-08T06:07:47.725Z,100967.40
2024-03-08T06:10:19.282Z,100969.75
2024-03-08T06:12:50.611Z,100969.46
2024-03-08T06:15:22.508Z,100972.54
2024-03-08T06:17:54.959Z,100972.85
2024-03-08T06:20:27.699Z,100973.75
2024-03-08T06:23:01.133Z,100967.29
2024-03-08T06:25:32.718Z,100965.20
2024-03-08T06:28:04.633Z,100964.73
2024-03-08T06:30:36.333Z,100969.98
2024-03-08T06:33:09.823Z,100964.48
2024-03-08T06:35:41.602Z,100967.86
2024-03-08T06:38:14.633Z,100967.77
2024-03-08T06:41:03.961Z,100967.14
2024-03-08T06:43:35.839Z,100965.86
2024-03-08T06:46:08.949Z,100965.14
2024-03-08T06:48:41.650Z,100971.94
2024-03-08T06:51:14.273Z,100964.56
2024-03-08T06:53:48.520Z,100964.08
2024-03-08T06:56:21.232Z,100962.33
2024-03-08T06:58:55.365Z,100961.74
2024-03-08T07:01:39.148Z,100961.71
2024-03-08T07:04:13.411Z,100957.52
2024-03-08T07:06:47.310Z,100958.84
2024-03-08T07:09:21.036Z,100957.70
2024-03-08T07:11:56.337Z,100953.08
2024-03-08T07:14:29.079Z,100956.14
2024-03-08T07:17:04.037Z,100957.48
2024-03-08T07:19:37.334Z,100958.12
2024-03-08T07:22:11.744Z,100958.38
2024-03-08T07:25:06.410Z,100958.91
2024-03-08T07:27:38.323Z,100954.94
2024-03-08T07:30:14.239Z,100954.89
2024-03-08T07:32:47.476Z,100955.48
2024-03-08T07:35:21.101Z,100959.48
2024-03-08T07:37:53.087Z,100960.48
2024-03-08T07:40:25.116Z,100955.37
2024-03-08T07:42:57.274Z,100959.73
2024-03-08T07:45:29.593Z,100953.97
2024-03-08T07:48:01.779Z,100956.95
2024-03-08T07:50:34.896Z,100954.90
2024-03-08T07:53:07.932Z,100955.34
2024-03-08T07:55:41.436Z,100952.61
2024-03-08T07:58:15.118Z,100946.27
2024-03-08T08:00:48.061Z,100945.37
2024-03-08T08:03:22.498Z,100946.95
2024-03-08T08:05:55.362Z,100942.04
2024-03-08T08:08:27.888Z,100942.20
2024-03-08T08:10:59.909Z,100943.86
2024-03-08T08:13:33.972Z,100940.27
2024-03-08T08:16:07.286Z,100942.52
2024-03-08T08:18:42.411Z,100941.69
2024-03-08T08:21:14.221Z,100938.11
2024-03-08T08:23:47.471Z,100939.36
2024-03-08T08:26:20.266Z,100933.71
2024-03-08T08:28:56.383Z,100932.09
2024-03-08T08:31:28.589Z,100930.92
2024-03-08T08:34:01.396Z,100927.66
2024-03-08T08:36:35.544Z,100929.47
2024-03-08T08:39:14.085Z,100930.67
2024-03-08T08:41:51.147Z,100928.93
2024-03-08T08:44:23.525Z,100929.95
2024-03-08T08:46:59.754Z,100924.08
2024-03-08T08:49:39.337Z,100923.01
2024-03-08T08:52:16.550Z,100924.92
2024-03-08T08:54:51.421Z,100924.48
2024-03-08T08:57:24.596Z,100922.80
2024-03-08T09:00:03.551Z,100922.83
2024-03-08T09:02:39.323Z,100918.52
2024-03-08T09:05:16.582Z,100913.96
2024-03-08T09:07:48.800Z,100916.55
2024-03-08T09:10:23.242Z,100913.09
2024-03-08T09:12:55.056Z,100913.92
2024-03-08T09:15:30.460Z,100910.13
2024-03-08T09:18:02.651Z,100900.30
2024-03-08T09:20:35.129Z,100901.23
2024-03-08T09:23:07.748Z,100897.42
2024-03-08T09:25:40.568Z,100893.88
2024-03-08T09:28:13.709Z,100895.35
2024-03-08T09:30:54.065Z,100892.14
2024-03-08T09:33:32.651Z,100894.70
2024-03-08T09:36:05.444Z,100891.42
2024-03-08T09:38:37.730Z,100887.80
2024-03-08T09:41:11.877Z,100894.48
2024-03-08T09:43:44.344Z,100889.75
2024-03-08T09:46:17.474Z,100894.06
2024-03-08T09:48:52.273Z,100890.42
2024-03-08T09:51:25.340Z,100891.90
2024-03-08T09:53:57.578Z,100889.96
2024-03-08T09:56:30.607Z,100887.12
2024-03-08T09:59:42.681Z,100886.11
2024-03-08T10:02:20.125Z,100885.86
2024-03-08T10:04:54.928Z,100883.73
2024-03-08T10:07:26.251Z,100882.48
2024-03-08T10:09:59.466Z,100875.44
2024-03-08T10:12:33.084Z,100875.41
2024-03-08T10:15:05.377Z,100875.85
2024-03-08T10:17:37.405Z,100873.09
2024-03-08T10:20:19.281Z,100871.14
2024-03-08T10:22:58.761Z,100872.26
2024-03-08T10:25:41.573Z,100869.55
2024-03-08T10:28:14.239Z,100870.64
2024-03-08T10:30:52.159Z,100869.38
2024-03-08T10:33:26.760Z,100867.84
2024-03-08T10:35:59.711Z,100866.96
2024-03-08T10:38:35.546Z,100864.30
2024-03-08T10:41:10.343Z,100865.67
2024-03-08T10:44:09.991Z,100864.45
2024-03-08T10:47:02.689Z,100862.16
2024-03-08T10:49:41.217Z,100849.38
2024-03-08T10:52:15.749Z,100848.27
2024-03-08T10:54:50.589Z,100845.52
2024-03-08T10:57:25.906Z,100847.38
2024-03-08T10:59:59.941Z,100846.09
2024-03-08T11:02:33.455Z,100838.27
2024-03-08T11:05:14.429Z,100835.60
2024-03-08T11:07:49.491Z,100831.72
2024-03-08T11:10:26.799Z,100829.20
2024-03-08T11:13:00.206Z,100826.02
2024-03-08T11:15:35.478Z,100823.20
2024-03-08T11:18:11.998Z,100822.81
2024-03-08T11:20:44.142Z,100823.10
2024-03-08T11:23:16.305Z,100819.52
2024-03-08T11:25:52.001Z,100818.47
2024-03-08T11:28:25.968Z,100814.04
2024-03-08T11:31:30.156Z,100818.30
2024-03-08T11:34:02.713Z,100818.69
2024-03-08T11:36:39.366Z,100810.27
2024-03-08T11:39:16.152Z,100811.38
2024-03-08T11:41:48.054Z,100810.30
2024-03-08T11:44:19.784Z,100809.10
2024-03-08T11:46:51.292Z,100807.44
2024-03-08T11:49:23.651Z,100806.63
2024-03-08T11:51:57.971Z,100800.94
2024-03-08T11:54:31.357Z,100800.16
2024-03-08T11:57:03.685Z,100797.56
2024-03-08T11:59:35.565Z,100790.65
2024-03-08T12:02:11.763Z,100787.46
2024-03-08T12:04:43.658Z,100784.81
2024-03-08T12:07:20.400Z,100784.06
2024-03-08T12:10:23.391Z,100784.75
2024-03-08T12:13:00.951Z,100778.71
2024-03-08T12:15:36.483Z,100775.24
2024-03-08T12:18:09.278Z,100773.35
2024-03-08T12:20:45.783Z,100772.30
2024-03-08T12:23:20.584Z,100767.64
2024-03-08T12:25:52.790Z,100768.15
2024-03-08T12:28:24.501Z,100763.60
2024-03-08T12:30:58.736Z,100759.25
2024-03-08T12:33:31.162Z,100758.54
2024-03-08T12:36:08.402Z,100756.06
2024-03-08T12:38:40.102Z,100751.35
2024-03-08T12:41:14.576Z,100751.30
2024-03-08T12:43:50.185Z,100748.27
2024-03-08T12:46:23.604Z,100741.33
2024-03-08T12:48:55.593Z,100737.38
2024-03-08T12:51:27.220Z,100736.23
2024-03-08T12:53:59.200Z,100730.41
2024-03-08T12:56:35.381Z,100727.48
2024-03-08T12:59:07.866Z,100723.77
2024-03-08T13:01:40.334Z,100720.14
2024-03-08T13:04:13.058Z,100715.93
2024-03-08T13:06:44.833Z,100709.41
2024-03-08T13:09:16.997Z,100708.77
2024-03-08T13:11:50.251Z,100707.73
2024-03-08T13:14:22.280Z,100705.61
2024-03-08T13:16:57.167Z,100704.85
2024-03-08T13:19:29.754Z,100695.52
2024-03-08T13:22:05.896Z,100694.77
2024-03-08T13:24:38.598Z,100694.77
2024-03-08T13:27:20.873Z,100692.16
2024-03-08T13:29:53.970Z,100692.47
2024-03-08T13:32:26.724Z,100686.04
2024-03-08T13:34:58.695Z,100691.00
2024-03-08T13:37:30.978Z,100686.36
2024-03-08T13:40:03.406Z,100681.56
2024-03-08T13:42:35.278Z,100678.90
2024-03-08T13:45:09.136Z,100676.20
2024-03-08T13:47:42.513Z,100678.27
2024-03-08T13:50:17.819Z,100677.07
2024-03-08T13:52:53.554Z,100670.21
2024-03-08T13:55:29.226Z,100662.94
2024-03-08T13:58:01.948Z,100654.45
2024-03-08T14:00:35.146Z,100654.35
2024-03-08T14:03:08.481Z,100655.39
2024-03-08T14:05:41.096Z,100659.67
2024-03-08T14:08:14.251Z,100655.30
2024-03-08T14:10:48.674Z,100653.34
2024-03-08T14:13:22.718Z,100650.54
2024-03-08T14:15:55.770Z,100650.61
2024-03-08T14:18:27.388Z,100646.55
2024-03-08T14:21:00.279Z,100643.59
2024-03-08T14:23:34.432Z,100641.05
2024-03-08T14:26:09.682Z,100638.75
2024-03-08T14:28:43.221Z,100638.44
2024-03-08T14:31:21.037Z,100638.03
2024-03-08T14:33:52.967Z,100634.22
2024-03-08T14:36:27.085Z,100632.83
2024-03-08T14:38:58.774Z,100628.79
2024-03-08T14:41:31.456Z,100624.38
2024-03-08T14:44:03.756Z,100626.00
2024-03-08T14:46:35.466Z,100618.79
2024-03-08T14:49:09.967Z,100619.73
2024-03-08T14:51:42.318Z,100620.48
2024-03-08T14:54:19.137Z,100618.13
2024-03-08T14:56:52.030Z,100621.05
2024-03-08T14:59:24.665Z,100624.30
2024-03-08T15:01:57.675Z,100620.33
2024-03-08T15:04:29.685Z,100618.80
2024-03-08T15:07:03.332Z,100615.51
2024-03-08T15:09:41.280Z,100615.56
2024-03-08T15:12:13.337Z,100612.86
2024-03-08T15:14:47.790Z,100611.20
2024-03-08T15:17:22.515Z,100609.24
2024-03-08T15:19:53.810Z,100610.61
2024-03-08T15:22:25.862Z,100606.84
2024-03-08T15:24:59.664Z,100605.45
2024-03-08T15:27:31.282Z,100607.18
2024-03-08T15:30:04.731Z,100603.30
2024-03-08T15:32:38.933Z,100603.28
2024-03-08T15:35:15.065Z,100605.64
2024-03-08T15:37:47.277Z,100603.20
2024-03-08T15:40:23.789Z,100600.05
2024-03-08T15:43:01.249Z,100599.70
2024-03-08T15:45:33.801Z,100600.57
2024-03-08T15:48:07.391Z,100596.63
2024-03-08T15:50:39.840Z,100597.19
2024-03-08T15:53:13.112Z,100600.23
2024-03-08T15:55:49.773Z,100598.48
2024-03-08T15:58:25.942Z,100597.61
2024-03-08T16:01:00.884Z,100595.33
2024-03-08T16:03:33.985Z,100596.88
2024-03-08T16:06:09.638Z,100596.02
2024-03-08T16:08:41.981Z,100594.73
2024-03-08T16:11:20.318Z,100594.36
2024-03-08T16:13:53.145Z,100594.92
2024-03-08T16:16:28.830Z,100595.93
2024-03-08T16:19:09.802Z,100595.52
2024-03-08T16:21:46.128Z,100597.66
2024-03-08T16:24:19.631Z,100596.71
2024-03-08T16:26:53.901Z,100599.34
2024-03-08T16:29:26.356Z,100599.93
2024-03-08T16:32:00.995Z,100597.62
2024-03-08T16:34:38.872Z,100595.90
2024-03-08T16:37:15.391Z,100597.11
2024-03-08T16:39:50.779Z,100596.14
2024-03-08T16:42:28.521Z,100594.59
2024-03-08T16:45:03.374Z,100590.70
2024-03-08T16:47:40.981Z,100593.37
2024-03-08T16:50:16.497Z,100592.08
2024-03-08T16:52:56.822Z,100593.33
2024-03-08T16:55:36.367Z,100592.53
2024-03-08T16:58:17.003Z,100594.45
2024-03-08T17:00:54.426Z,100592.70
2024-03-08T17:03:56.524Z,100593.60
2024-03-08T17:06:39.410Z,100597.83
2024-03-08T17:09:14.796Z,100595.02
2024-03-08T17:11:52.334Z,100600.36
2024-03-08T17:14:29.650Z,100596.23
2024-03-08T17:17:09.906Z,100600.63
2024-03-08T17:19:44.956Z,100602.13
2024-03-08T17:22:31.072Z,100599.33
2024-03-08T17:25:11.564Z,100599.45
2024-03-08T17:27:51.261Z,100598.41
2024-03-08T17:30:28.233Z,100595.42
2024-03-08T17:33:05.668Z,100600.60
2024-03-08T17:35:39.842Z,100600.92
2024-03-08T17:38:16.795Z,100600.46
2024-03-08T17:40:49.919Z,100602.30
2024-03-08T17:43:25.184Z,100599.81
2024-03-08T17:46:00.290Z,100599.66
2024-03-08T17:48:34.138Z,100600.34
2024-03-08T17:51:10.205Z,100603.27
2024-03-08T17:53:43.530Z,100603.19
2024-03-08T17:56:18.358Z,100599.82
2024-03-08T17:59:01.591Z,100596.88
2024-03-08T18:01:39.407Z,100596.89
2024-03-08T18:04:12.299Z,100598.41
2024-03-08T18:06:52.929Z,100595.69
2024-03-08T18:09:28.370Z,100593.77
2024-03-08T18:12:06.586Z,100595.34
2024-03-08T18:14:42.750Z,100591.69
2024-03-08T18:17:15.766Z,100594.56
2024-03-08T18:19:51.774Z,100590.05
2024-03-08T18:22:25.658Z,100594.77
2024-03-08T18:24:59.766Z,100597.33
2024-03-08T18:27:31.922Z,100598.88
2024-03-08T18:30:05.891Z,100598.77
2024-03-08T18:32:37.686Z,100594.55
2024-03-08T18:35:12.726Z,100594.51
2024-03-08T18:37:46.663Z,100589.35
2024-03-08T18:40:24.722Z,100588.88
2024-03-08T18:42:59.738Z,100591.17
2024-03-08T18:45:36.445Z,100597.13
2024-03-08T18:48:13.429Z,100598.88
2024-03-08T18:50:47.398Z,100599.53
2024-03-08T18:53:21.196Z,100596.91
2024-03-08T18:55:55.614Z,100598.60
2024-03-08T18:58:39.169Z,100598.02
2024-03-08T19:01:23.096Z,100592.19
2024-03-08T19:03:56.755Z,100597.69
2024-03-08T19:06:32.780Z,100596.41
2024-03-08T19:09:06.871Z,100593.96
2024-03-08T19:11:41.346Z,100590.11
2024-03-08T19:14:13.760Z,100595.80
2024-03-08T19:16:49.910Z,100587.46
2024-03-08T19:19:24.356Z,100588.12
2024-03-08T19:21:57.175Z,100582.67
2024-03-08T19:24:29.134Z,100582.39
2024-03-08T19:27:02.574Z,100584.90
2024-03-08T19:29:34.523Z,100582.73
2024-03-08T19:32:07.091Z,100582.61
2024-03-08T19:34:40.639Z,100579.42
2024-03-08T19:37:12.994Z,100581.12
2024-03-08T19:39:46.289Z,100578.83
2024-03-08T19:42:18.354Z,100579.70
2024-03-08T19:44:51.738Z,100574.48
2024-03-08T19:47:24.525Z,100576.12
2024-03-08T19:49:58.187Z,100574.77
2024-03-08T19:52:30.657Z,100576.67
2024-03-08T19:55:02.545Z,100576.48
2024-03-08T19:57:34.834Z,100576.62
2024-03-08T20:00:16.795Z,100577.77
2024-03-08T20:02:49.666Z,100574.30
2024-03-08T20:05:23.753Z,100572.90
2024-03-08T20:07:57.047Z,100572.17
2024-03-08T20:10:30.238Z,100573.48
2024-03-08T20:13:03.494Z,100572.80
2024-03-08T20:15:41.944Z,100575.11
2024-03-08T20:18:14.782Z,100568.69
2024-03-08T20:20:50.253Z,100561.23
2024-03-08T20:23:23.161Z,100562.31
2024-03-08T20:25:55.442Z,100563.23
2024-03-08T20:28:28.015Z,100565.60
2024-03-08T20:31:00.248Z,100562.45
2024-03-08T20:33:33.509Z,100560.70
2024-03-08T20:36:07.066Z,100562.35
2024-03-08T20:38:42.469Z,100564.51
2024-03-08T20:41:16.953Z,100560.61
2024-03-08T20:43:49.087Z,100558.91
2024-03-08T20:46:21.101Z,100557.14
2024-03-08T20:48:53.054Z,100556.86
2024-03-08T20:51:26.801Z,100559.61
2024-03-08T20:53:59.525Z,100555.55
2024-03-08T20:56:32.425Z,100556.59
2024-03-08T20:59:04.864Z,100558.04
2024-03-08T21:01:37.949Z,100555.84
2024-03-08T21:04:14.629Z,100555.89
2024-03-08T21:06:49.507Z,100556.16
2024-03-08T21:09:21.991Z,100554.66
2024-03-08T21:11:54.110Z,100556.17
2024-03-08T21:14:26.122Z,100554.36
2024-03-08T21:17:00.242Z,100558.36
2024-03-08T21:19:34.419Z,100556.58
2024-03-08T21:22:06.864Z,100554.98
2024-03-08T21:24:40.954Z,100554.66
2024-03-08T21:27:12.690Z,100554.20
2024-03-08T21:29:45.248Z,100551.11
2024-03-08T21:32:16.988Z,100553.23
2024-03-08T21:34:50.794Z,100547.27
2024-03-08T21:37:22.754Z,100549.98
2024-03-08T21:39:56.118Z,100546.60
2024-03-08T21:42:28.569Z,100546.61
2024-03-08T21:45:00.488Z,100544.81
2024-03-08T21:47:32.908Z,100544.02
2024-03-08T21:50:05.072Z,100543.00
2024-03-08T21:52:37.796Z,100540.86
2024-03-08T21:55:11.626Z,100539.77
2024-03-08T21:57:45.657Z,100539.78
2024-03-08T22:00:19.074Z,100533.05
2024-03-08T22:02:51.440Z,100531.00
2024-03-08T22:05:24.991Z,100532.38
2024-03-08T22:07:57.092Z,100534.54
2024-03-08T22:10:31.133Z,100534.64
2024-03-08T22:13:03.184Z,100530.67
2024-03-08T22:15:35.327Z,100533.54
2024-03-08T22:18:08.010Z,100525.48
2024-03-08T22:20:40.138Z,100527.72
2024-03-08T22:23:13.242Z,100527.27
2024-03-08T22:25:45.483Z,100528.70
2024-03-08T22:28:19.301Z,100524.41
2024-03-08T22:30:52.997Z,100527.71
2024-03-08T22:33:26.527Z,100525.23
2024-03-08T22:35:59.387Z,100522.38
2024-03-08T22:38:32.024Z,100524.17
2024-03-08T22:41:05.047Z,100519.59
2024-03-08T22:43:38.659Z,100516.81
2024-03-08T22:46:10.699Z,100513.34
2024-03-08T22:48:43.193Z,100512.87
2024-03-08T22:51:16.712Z,100509.91
2024-03-08T22:53:48.095Z,100509.13
2024-03-08T22:56:19.740Z,100506.19
2024-03-08T22:58:52.708Z,100503.08
2024-03-08T23:01:24.759Z,100508.71
2024-03-08T23:03:56.349Z,100505.77
2024-03-08T23:06:27.857Z,100507.05
2024-03-08T23:09:00.010Z,100508.90
2024-03-08T23:11:31.442Z,100507.62
2024-03-08T23:14:04.462Z,100505.67
2024-03-08T23:16:36.616Z,100505.95
2024-03-08T23:19:09.092Z,100504.19
2024-03-08T23:21:40.699Z,100505.96
2024-03-08T23:24:12.532Z,100503.52
2024-03-08T23:26:46.590Z,100505.23
2024-03-08T23:29:18.992Z,100506.28
2024-03-08T23:31:50.476Z,100503.88
2024-03-08T23:34:22.150Z,100507.41
2024-03-08T23:36:54.556Z,100508.66
2024-03-08T23:39:27.576Z,100504.79
2024-03-08T23:42:00.358Z,100503.73
2024-03-08T23:44:31.924Z,100502.14
2024-03-08T23:47:06.756Z,100499.83
2024-03-08T23:49:36.502Z,100499.17
2024-03-08T23:52:11.328Z,100496.89
2024-03-08T23:54:42.431Z,100495.14
2024-03-08T23:57:14.739Z,100494.66
2024-03-08T23:59:49.029Z,100495.05
